Copia in Excel

Francia - National 2 Statistiche Corner e Risultati

TotalCorner fornisce statistiche corner, calendario, risultati, classifica, statistiche cartellini e confronto quote per Francia - National 2. Segui le ultime Francia - National 2 partite con corner a fine partita, corner all'intervallo, gol, cartellini e dati delle partite.

ora d'inizio Casa Punteggio Trasferta Handicap Corner Corner PT Corner asiat. Corner O/U Gol Gol O/U Attacco Tiri Analisi
March 2025
03/08 17:30 Tempo pieno US Castanet 0 - 2 Colomiers 0.0, +0.5 2 - 3 1 - 1 2.5 Under 84 - 90 5 - 11
03/08 17:00 Tempo pieno Laval II 1 - 1 Vendee Fontenay 0.0 3 - 3 1 - 2 2.5 Under 108 - 93 13 - 5
03/08 17:00 Tempo pieno Sable FC 1 - 2 St Philbert de Grandlieu 0.0, -0.5 6 - 5 2 - 2 2.5 Over 80 - 85 5 - 5
03/08 17:00 Tempo pieno Grand Quevilly FC 2 - 1 AG Caennaise -0.5 6 - 4 5 - 1 2.5, 3.0 Over 87 - 106 11 - 7
03/08 17:00 Tempo pieno Entente SSG 1 - 3 Dieppe +0.5, +1.0 3 - 3 1 - 1 2.5 Over 108 - 97 7 - 9
03/08 17:00 Tempo pieno Dijon II 1 - 0 Neuilly Sur Marne -0.5 4 - 2 2 - 1 8.5 Under 2.5, 3.0 Under 76 - 61 8 - 6
03/08 17:00 Tempo pieno US Ivry 0 - 3 Moulins Yzeure Foot -0.5 4 - 8 2 - 8 2.5, 3.0 Over 73 - 72 6 - 12
03/08 17:00 Tempo pieno Strasbourg Koenigshoffen 2 - 3 Strasbourg II 0.0 9 - 7 3 - 2 8.5 Over 2.5 Over 121 - 73 6 - 6
03/08 17:00 Tempo pieno Angers II 4 - 1 Rennes TA 0.0, -0.5 3 - 8 2 - 1 2.0, 2.5 Over 66 - 83 14 - 15
03/08 17:00 Tempo pieno Drancy 1 - 1 OCPAM 0.0, -0.5 4 - 3 3 - 2 2.5, 3.0 Under 83 - 67 5 - 14
03/08 17:00 Tempo pieno US Pays de Cassel 1 - 2 RC Calais -0.5 4 - 3 2 - 2 2.5 Over 90 - 79 11 - 9
03/08 17:00 Tempo pieno FC Ouest Tourangeau 2 - 2 US Chateauneuf sur Loire -1.0 6 - 3 1 - 2 2.5 Over 92 - 74 13 - 9
03/08 17:00 Tempo pieno Auxerre II 1 - 1 Troyes II 0.0, -0.5 3 - 3 1 - 2 2.5 Under 90 - 73 13 - 10
03/08 17:00 Tempo pieno US Lusitanos Saint-Maur 2 - 0 Montceau -1.0 6 - 2 2 - 2 2.5 Under 154 - 84 15 - 3
03/08 17:00 Tempo pieno Chambery 2 - 3 Thonon Evian FC 0.0 6 - 4 2 - 1 2.0, 2.5 Over 86 - 100 11 - 8
03/08 17:00 Tempo pieno Agde 3 - 1 Marseille II 0.0, +0.5 3 - 4 2 - 2 2.5, 3.0 Over 70 - 81 8 - 3
03/08 17:00 Tempo pieno AC Seyssinet 0 - 1 Clermont Foot II -0.5 5 - 3 2 - 1 2.5, 3.0 Under 108 - 98 10 - 19
03/08 15:00 Tempo pieno Guingamp II 1 - 1 Rennes II -0.5, -1.0 7 - 4 1 - 3 2.5 Under 82 - 75 14 - 8
March 2025
03/02 13:30 Tempo pieno Bourges Moulon 6 - 0 US Chateauneuf sur Loire -0.5 4 - 1 3 - 0 2.5 Over 105 - 98 18 - 15
03/02 13:00 Tempo pieno CMS Oissel 1 - 1 FC Bastia-Borgo 0.0 6 - 0 1 - 0 2.0, 2.5 Under 97 - 66 15 - 5
03/01 17:00 Tempo pieno Montceau 1 - 0 Gueugnon 0.0 4 - 5 3 - 0 2.5 Under 111 - 96 14 - 8
02/28 18:00 Tempo pieno FC Ouest Tourangeau 1 - 2 Romorantin 0.0, +0.5 8 - 0 7 - 0 2.5, 3.0 Over 85 - 76 18 - 7
February 2025
02/23 14:00 Tempo pieno Strasbourg II 2 - 3 CA Pontarlier 0.0, +0.5 2 - 4 1 - 4 2.0, 2.5 Over 82 - 64 9 - 10
02/23 14:00 Tempo pieno US Chateauneuf sur Loire 2 - 2 Union Cosnoise +0.5, +1.0 6 - 9 3 - 2 2.5, 3.0 Over 89 - 87 17 - 17
02/23 13:30 Sochaux II 0 - 0 Raon l'Etape -1.0, -1.5 0 - 0 0 - 0 3.0, 3.5 - -
02/23 13:30 Tempo pieno Metz II 2 - 0 ASM Belfort 0.0, -0.5 5 - 7 1 - 3 2.0, 2.5 Under 91 - 72 10 - 7
02/22 19:00 Tempo pieno ASPTT Digione 2 - 0 Louhans-Cuiseaux -0.5, -1.0 6 - 4 4 - 1 2.5 Under 85 - 59 10 - 8
02/22 18:00 Tempo pieno Pau II 1 - 0 US Castanet -0.5, -1.0 6 - 9 3 - 6 2.0, 2.5 Under 82 - 80 10 - 15
02/22 17:00 Tempo pieno Blagnac 0 - 0 Stade Bordelais -0.5, -1.0 7 - 9 1 - 6 2.0, 2.5 Under 68 - 67 8 - 15
02/22 17:00 Tempo pieno Rennes TA 1 - 0 Ussa Vertou 0.0, -0.5 5 - 9 5 - 0 2.5 Under 85 - 72 10 - 8
02/22 17:00 Tempo pieno Vendee Fontenay 2 - 2 Vitre 0.0 3 - 3 2 - 1 2.5 Over 93 - 65 12 - 9
02/22 17:00 Tempo pieno OCPAM 0 - 0 Valenciennes II -0.5 6 - 3 1 - 3 2.5, 3.0 Under 88 - 84 10 - 15
02/22 17:00 Tempo pieno Lille II 0 - 0 IC Croix 0.0, -0.5 2 - 2 1 - 1 2.5 Under 87 - 54 10 - 12
02/22 17:00 Tempo pieno Romorantin 0 - 3 Chatellerault -0.5, -1.0 5 - 2 2 - 1 3.0 Push 85 - 98 11 - 14
02/22 17:00 Tempo pieno Troyes II 8 - 2 Torcy -1.0 6 - 1 3 - 0 3.0 Over 87 - 61 24 - 7
02/22 17:00 Tempo pieno US Ivry 2 - 0 Gueugnon -0.5, -1.0 4 - 5 3 - 2 2.5 Under 82 - 83 13 - 6
02/22 17:00 Tempo pieno ES Fosseenne 3 - 0 Agde 0.0, -0.5 4 - 3 2 - 2 2.5, 3.0 Over 67 - 82 16 - 6
02/22 17:00 Olympique d'Ales 0 - 0 US Salinieres -0.5 0 - 0 0 - 0 2.5, 3.0 - -
02/22 17:00 Tempo pieno Lyon Duchere 2 - 1 Chambery -0.5 1 - 7 1 - 3 2.0, 2.5 Over 106 - 95 7 - 9
02/22 17:00 Tempo pieno RC Calais 0 - 1 Entente SSG -0.5 8 - 8 3 - 6 2.5 Under 77 - 88 17 - 11

Resta aggiornato con TotalCorner

Unisciti al nostro canale Telegram gratuito di pronostici. Puoi anche impostare avvisi partita personalizzati.

Pronostici gratis su Telegram Avvisi personalizzati